sensor_id;sensor_type;location;lat;lon;timestamp;temperature;humidity
70366;DHT22;57787;48.216;12.396;2023-07-24T00:00:44;17.40;70.00
70366;DHT22;57787;48.216;12.396;2023-07-24T00:03:11;17.40;69.60
70366;DHT22;57787;48.216;12.396;2023-07-24T00:05:38;17.30;69.60
70366;DHT22;57787;48.216;12.396;2023-07-24T00:08:05;17.30;70.50
70366;DHT22;57787;48.216;12.396;2023-07-24T00:10:35;17.30;70.20
70366;DHT22;57787;48.216;12.396;2023-07-24T00:13:04;17.20;70.60
70366;DHT22;57787;48.216;12.396;2023-07-24T00:15:31;17.20;70.10
70366;DHT22;57787;48.216;12.396;2023-07-24T00:18:00;17.10;70.40
70366;DHT22;57787;48.216;12.396;2023-07-24T00:20:27;17.10;70.80
70366;DHT22;57787;48.216;12.396;2023-07-24T00:22:54;17.10;71.50
70366;DHT22;57787;48.216;12.396;2023-07-24T00:25:21;17.00;70.90
70366;DHT22;57787;48.216;12.396;2023-07-24T00:27:48;17.00;71.20
70366;DHT22;57787;48.216;12.396;2023-07-24T00:30:15;17.00;71.80
70366;DHT22;57787;48.216;12.396;2023-07-24T00:32:41;17.00;71.20
70366;DHT22;57787;48.216;12.396;2023-07-24T00:35:08;17.00;71.20
70366;DHT22;57787;48.216;12.396;2023-07-24T00:37:37;17.00;71.90
70366;DHT22;57787;48.216;12.396;2023-07-24T00:40:05;17.00;72.10
70366;DHT22;57787;48.216;12.396;2023-07-24T00:42:33;17.00;72.20
70366;DHT22;57787;48.216;12.396;2023-07-24T00:45:00;16.90;71.90
70366;DHT22;57787;48.216;12.396;2023-07-24T00:47:31;16.90;73.20
70366;DHT22;57787;48.216;12.396;2023-07-24T00:49:58;16.90;73.30
70366;DHT22;57787;48.216;12.396;2023-07-24T00:52:25;16.90;73.80
70366;DHT22;57787;48.216;12.396;2023-07-24T00:54:53;16.90;73.40
70366;DHT22;57787;48.216;12.396;2023-07-24T00:57:20;16.90;73.70
70366;DHT22;57787;48.216;12.396;2023-07-24T00:59:47;16.90;73.80
70366;DHT22;57787;48.216;12.396;2023-07-24T01:02:14;16.80;75.00
70366;DHT22;57787;48.216;12.396;2023-07-24T01:04:44;16.80;73.90
70366;DHT22;57787;48.216;12.396;2023-07-24T01:07:12;16.80;74.00
70366;DHT22;57787;48.216;12.396;2023-07-24T01:09:40;16.70;74.10
70366;DHT22;57787;48.216;12.396;2023-07-24T01:15:05;16.70;74.30
70366;DHT22;57787;48.216;12.396;2023-07-24T01:17:33;16.70;74.40
70366;DHT22;57787;48.216;12.396;2023-07-24T01:20:08;16.70;74.60
70366;DHT22;57787;48.216;12.396;2023-07-24T01:25:55;16.60;74.40
70366;DHT22;57787;48.216;12.396;2023-07-24T01:28:22;16.50;74.00
70366;DHT22;57787;48.216;12.396;2023-07-24T01:30:49;16.40;74.30
70366;DHT22;57787;48.216;12.396;2023-07-24T01:33:16;16.40;74.40
70366;DHT22;57787;48.216;12.396;2023-07-24T01:35:44;16.30;75.00
70366;DHT22;57787;48.216;12.396;2023-07-24T01:38:14;16.30;74.90
70366;DHT22;57787;48.216;12.396;2023-07-24T01:40:42;16.30;75.20
70366;DHT22;57787;48.216;12.396;2023-07-24T01:43:09;16.30;75.50
70366;DHT22;57787;48.216;12.396;2023-07-24T01:45:37;16.30;75.20
70366;DHT22;57787;48.216;12.396;2023-07-24T01:48:05;16.20;75.60
70366;DHT22;57787;48.216;12.396;2023-07-24T01:50:32;16.20;75.60
70366;DHT22;57787;48.216;12.396;2023-07-24T01:53:02;16.10;76.10
70366;DHT22;57787;48.216;12.396;2023-07-24T01:55:29;16.10;76.40
70366;DHT22;57787;48.216;12.396;2023-07-24T01:57:55;16.10;76.20
70366;DHT22;57787;48.216;12.396;2023-07-24T02:00:22;16.10;76.20
70366;DHT22;57787;48.216;12.396;2023-07-24T02:02:49;16.00;76.50
70366;DHT22;57787;48.216;12.396;2023-07-24T02:05:16;16.00;76.30
70366;DHT22;57787;48.216;12.396;2023-07-24T02:07:43;16.00;76.30
70366;DHT22;57787;48.216;12.396;2023-07-24T02:10:10;16.00;76.30
70366;DHT22;57787;48.216;12.396;2023-07-24T02:12:37;16.00;76.50
70366;DHT22;57787;48.216;12.396;2023-07-24T02:15:04;16.00;76.80
70366;DHT22;57787;48.216;12.396;2023-07-24T02:17:31;16.00;76.60
70366;DHT22;57787;48.216;12.396;2023-07-24T02:19:58;16.00;76.70
70366;DHT22;57787;48.216;12.396;2023-07-24T02:22:25;16.10;76.90
70366;DHT22;57787;48.216;12.396;2023-07-24T02:24:52;16.10;77.10
70366;DHT22;57787;48.216;12.396;2023-07-24T02:27:31;16.10;77.00
70366;DHT22;57787;48.216;12.396;2023-07-24T02:30:02;16.20;77.30
70366;DHT22;57787;48.216;12.396;2023-07-24T02:32:29;16.30;77.10
70366;DHT22;57787;48.216;12.396;2023-07-24T02:34:56;16.30;77.00
70366;DHT22;57787;48.216;12.396;2023-07-24T02:37:24;16.30;77.50
70366;DHT22;57787;48.216;12.396;2023-07-24T02:39:54;16.40;77.10
70366;DHT22;57787;48.216;12.396;2023-07-24T02:42:21;16.40;77.10
70366;DHT22;57787;48.216;12.396;2023-07-24T02:44:48;16.40;77.70
70366;DHT22;57787;48.216;12.396;2023-07-24T02:47:15;16.40;77.90
70366;DHT22;57787;48.216;12.396;2023-07-24T02:49:42;16.30;78.30
70366;DHT22;57787;48.216;12.396;2023-07-24T02:52:14;16.30;78.20
70366;DHT22;57787;48.216;12.396;2023-07-24T02:54:42;16.20;78.00
70366;DHT22;57787;48.216;12.396;2023-07-24T02:57:09;16.10;78.10
70366;DHT22;57787;48.216;12.396;2023-07-24T02:59:36;16.10;77.90
70366;DHT22;57787;48.216;12.396;2023-07-24T03:02:03;16.00;78.90
70366;DHT22;57787;48.216;12.396;2023-07-24T03:04:30;16.00;78.70
70366;DHT22;57787;48.216;12.396;2023-07-24T03:06:57;16.00;79.50
70366;DHT22;57787;48.216;12.396;2023-07-24T03:09:28;16.00;79.30
70366;DHT22;57787;48.216;12.396;2023-07-24T03:11:56;16.00;78.90
70366;DHT22;57787;48.216;12.396;2023-07-24T03:14:23;16.10;78.90
70366;DHT22;57787;48.216;12.396;2023-07-24T03:16:51;16.10;78.70
70366;DHT22;57787;48.216;12.396;2023-07-24T03:19:18;16.20;78.60
70366;DHT22;57787;48.216;12.396;2023-07-24T03:21:46;16.30;78.70
70366;DHT22;57787;48.216;12.396;2023-07-24T03:24:13;16.30;78.20
70366;DHT22;57787;48.216;12.396;2023-07-24T03:26:40;16.30;77.90
70366;DHT22;57787;48.216;12.396;2023-07-24T03:29:07;16.40;77.90
70366;DHT22;57787;48.216;12.396;2023-07-24T03:31:34;16.40;77.70
70366;DHT22;57787;48.216;12.396;2023-07-24T03:34:02;16.50;77.20
70366;DHT22;57787;48.216;12.396;2023-07-24T03:36:29;16.50;77.60
70366;DHT22;57787;48.216;12.396;2023-07-24T03:38:56;16.50;78.30
70366;DHT22;57787;48.216;12.396;2023-07-24T03:41:23;16.60;77.40
70366;DHT22;57787;48.216;12.396;2023-07-24T03:43:50;16.60;77.80
70366;DHT22;57787;48.216;12.396;2023-07-24T03:46:17;16.60;77.30
70366;DHT22;57787;48.216;12.396;2023-07-24T03:48:44;16.60;77.00
70366;DHT22;57787;48.216;12.396;2023-07-24T03:51:10;16.70;77.40
70366;DHT22;57787;48.216;12.396;2023-07-24T03:53:37;16.70;78.80
70366;DHT22;57787;48.216;12.396;2023-07-24T03:56:04;16.80;78.70
70366;DHT22;57787;48.216;12.396;2023-07-24T03:58:31;16.90;78.50
70366;DHT22;57787;48.216;12.396;2023-07-24T04:00:58;17.00;79.00
70366;DHT22;57787;48.216;12.396;2023-07-24T04:03:28;17.10;79.90
70366;DHT22;57787;48.216;12.396;2023-07-24T04:05:55;17.20;80.70
70366;DHT22;57787;48.216;12.396;2023-07-24T04:08:25;17.30;80.60
70366;DHT22;57787;48.216;12.396;2023-07-24T04:10:54;17.20;80.60
70366;DHT22;57787;48.216;12.396;2023-07-24T04:13:23;17.20;79.10
70366;DHT22;57787;48.216;12.396;2023-07-24T04:15:51;17.20;79.50
70366;DHT22;57787;48.216;12.396;2023-07-24T04:18:18;17.20;80.30
70366;DHT22;57787;48.216;12.396;2023-07-24T04:20:45;17.10;81.20
70366;DHT22;57787;48.216;12.396;2023-07-24T04:23:13;16.90;81.60
70366;DHT22;57787;48.216;12.396;2023-07-24T04:25:43;16.90;82.60
70366;DHT22;57787;48.216;12.396;2023-07-24T04:28:12;16.80;82.60
70366;DHT22;57787;48.216;12.396;2023-07-24T04:30:40;16.70;83.00
70366;DHT22;57787;48.216;12.396;2023-07-24T04:33:06;16.80;83.00
70366;DHT22;57787;48.216;12.396;2023-07-24T04:35:36;16.80;83.00
70366;DHT22;57787;48.216;12.396;2023-07-24T04:38:03;16.80;83.10
70366;DHT22;57787;48.216;12.396;2023-07-24T04:40:31;16.80;83.20
70366;DHT22;57787;48.216;12.396;2023-07-24T04:42:58;16.90;83.40
70366;DHT22;57787;48.216;12.396;2023-07-24T04:45:30;16.90;83.20
70366;DHT22;57787;48.216;12.396;2023-07-24T04:47:57;17.10;83.90
70366;DHT22;57787;48.216;12.396;2023-07-24T04:50:23;17.20;84.70
70366;DHT22;57787;48.216;12.396;2023-07-24T04:52:52;17.20;83.60
70366;DHT22;57787;48.216;12.396;2023-07-24T04:55:20;17.20;83.80
70366;DHT22;57787;48.216;12.396;2023-07-24T04:57:48;17.30;83.90
70366;DHT22;57787;48.216;12.396;2023-07-24T05:00:17;17.30;83.80
70366;DHT22;57787;48.216;12.396;2023-07-24T05:02:46;17.30;83.80
70366;DHT22;57787;48.216;12.396;2023-07-24T05:05:13;17.40;84.10
70366;DHT22;57787;48.216;12.396;2023-07-24T05:07:40;17.40;83.30
70366;DHT22;57787;48.216;12.396;2023-07-24T05:10:07;17.40;83.80
70366;DHT22;57787;48.216;12.396;2023-07-24T05:12:34;17.40;83.50
70366;DHT22;57787;48.216;12.396;2023-07-24T05:15:01;17.50;83.80
70366;DHT22;57787;48.216;12.396;2023-07-24T05:17:29;17.60;83.90
70366;DHT22;57787;48.216;12.396;2023-07-24T05:19:58;17.60;83.80
70366;DHT22;57787;48.216;12.396;2023-07-24T05:22:26;17.80;83.00
70366;DHT22;57787;48.216;12.396;2023-07-24T05:24:53;17.90;82.30
70366;DHT22;57787;48.216;12.396;2023-07-24T05:27:20;18.30;82.10
70366;DHT22;57787;48.216;12.396;2023-07-24T05:29:47;18.80;81.80
70366;DHT22;57787;48.216;12.396;2023-07-24T05:32:15;19.60;79.60
70366;DHT22;57787;48.216;12.396;2023-07-24T05:34:43;22.30;70.00
70366;DHT22;57787;48.216;12.396;2023-07-24T05:37:13;22.80;66.40
70366;DHT22;57787;48.216;12.396;2023-07-24T05:39:41;22.90;65.70
70366;DHT22;57787;48.216;12.396;2023-07-24T05:42:08;22.60;66.60
70366;DHT22;57787;48.216;12.396;2023-07-24T05:44:35;22.20;67.60
70366;DHT22;57787;48.216;12.396;2023-07-24T05:47:03;22.50;67.10
70366;DHT22;57787;48.216;12.396;2023-07-24T05:49:30;22.60;66.20
70366;DHT22;57787;48.216;12.396;2023-07-24T05:51:57;22.10;67.60
70366;DHT22;57787;48.216;12.396;2023-07-24T05:54:24;21.70;68.70
70366;DHT22;57787;48.216;12.396;2023-07-24T05:56:52;21.30;69.50
70366;DHT22;57787;48.216;12.396;2023-07-24T05:59:19;22.00;68.50
70366;DHT22;57787;48.216;12.396;2023-07-24T06:01:48;24.50;62.80
70366;DHT22;57787;48.216;12.396;2023-07-24T06:04:20;27.30;54.00
70366;DHT22;57787;48.216;12.396;2023-07-24T06:06:47;29.90;47.60
70366;DHT22;57787;48.216;12.396;2023-07-24T06:09:14;32.30;41.70
70366;DHT22;57787;48.216;12.396;2023-07-24T06:11:41;33.40;39.20
70366;DHT22;57787;48.216;12.396;2023-07-24T06:14:11;33.60;37.80
70366;DHT22;57787;48.216;12.396;2023-07-24T06:16:38;32.00;39.80
70366;DHT22;57787;48.216;12.396;2023-07-24T06:19:06;30.50;43.30
70366;DHT22;57787;48.216;12.396;2023-07-24T06:21:33;29.50;45.20
70366;DHT22;57787;48.216;12.396;2023-07-24T06:24:00;28.90;46.30
70366;DHT22;57787;48.216;12.396;2023-07-24T06:26:28;28.40;48.90
70366;DHT22;57787;48.216;12.396;2023-07-24T06:28:56;28.00;50.50
70366;DHT22;57787;48.216;12.396;2023-07-24T06:31:23;27.60;50.20
70366;DHT22;57787;48.216;12.396;2023-07-24T06:33:51;27.40;51.00
70366;DHT22;57787;48.216;12.396;2023-07-24T06:36:18;27.00;52.90
70366;DHT22;57787;48.216;12.396;2023-07-24T06:38:45;27.00;52.80
70366;DHT22;57787;48.216;12.396;2023-07-24T06:41:14;26.90;52.60
70366;DHT22;57787;48.216;12.396;2023-07-24T06:43:46;27.00;52.80
70366;DHT22;57787;48.216;12.396;2023-07-24T06:46:13;27.30;53.20
70366;DHT22;57787;48.216;12.396;2023-07-24T06:48:40;27.30;51.50
70366;DHT22;57787;48.216;12.396;2023-07-24T06:51:08;27.00;51.80
70366;DHT22;57787;48.216;12.396;2023-07-24T06:53:35;26.70;52.70
70366;DHT22;57787;48.216;12.396;2023-07-24T06:56:02;26.60;53.80
70366;DHT22;57787;48.216;12.396;2023-07-24T07:01:11;26.30;54.50
70366;DHT22;57787;48.216;12.396;2023-07-24T07:03:38;26.40;54.70
70366;DHT22;57787;48.216;12.396;2023-07-24T07:08:58;27.00;55.00
70366;DHT22;57787;48.216;12.396;2023-07-24T07:11:26;27.20;52.70
70366;DHT22;57787;48.216;12.396;2023-07-24T07:13:53;27.30;53.20
70366;DHT22;57787;48.216;12.396;2023-07-24T07:16:20;27.40;52.50
70366;DHT22;57787;48.216;12.396;2023-07-24T07:18:47;27.50;52.30
70366;DHT22;57787;48.216;12.396;2023-07-24T07:21:14;27.40;52.20
70366;DHT22;57787;48.216;12.396;2023-07-24T07:23:40;27.30;51.80
70366;DHT22;57787;48.216;12.396;2023-07-24T07:26:07;27.30;51.50
70366;DHT22;57787;48.216;12.396;2023-07-24T07:28:34;27.30;52.10
70366;DHT22;57787;48.216;12.396;2023-07-24T07:31:01;27.20;51.80
70366;DHT22;57787;48.216;12.396;2023-07-24T07:33:28;26.90;51.80
70366;DHT22;57787;48.216;12.396;2023-07-24T07:35:56;26.80;52.40
70366;DHT22;57787;48.216;12.396;2023-07-24T07:38:25;26.60;53.00
70366;DHT22;57787;48.216;12.396;2023-07-24T07:40:52;26.70;53.70
70366;DHT22;57787;48.216;12.396;2023-07-24T07:43:19;26.70;53.00
70366;DHT22;57787;48.216;12.396;2023-07-24T07:45:46;27.00;53.80
70366;DHT22;57787;48.216;12.396;2023-07-24T07:48:14;27.50;52.50
70366;DHT22;57787;48.216;12.396;2023-07-24T07:50:41;28.20;49.80
70366;DHT22;57787;48.216;12.396;2023-07-24T07:53:11;28.90;50.30
70366;DHT22;57787;48.216;12.396;2023-07-24T07:55:38;29.30;45.90
70366;DHT22;57787;48.216;12.396;2023-07-24T08:00:40;29.80;47.50
70366;DHT22;57787;48.216;12.396;2023-07-24T08:03:08;29.80;46.90
70366;DHT22;57787;48.216;12.396;2023-07-24T08:05:34;29.90;46.60
70366;DHT22;57787;48.216;12.396;2023-07-24T08:08:02;30.30;44.30
70366;DHT22;57787;48.216;12.396;2023-07-24T08:10:29;30.30;44.20
70366;DHT22;57787;48.216;12.396;2023-07-24T08:12:59;30.40;44.60
70366;DHT22;57787;48.216;12.396;2023-07-24T08:15:25;30.20;45.20
70366;DHT22;57787;48.216;12.396;2023-07-24T08:17:52;29.90;45.60
70366;DHT22;57787;48.216;12.396;2023-07-24T08:20:21;29.40;47.30
70366;DHT22;57787;48.216;12.396;2023-07-24T08:25:19;28.40;51.60
70366;DHT22;57787;48.216;12.396;2023-07-24T08:27:45;27.80;50.40
70366;DHT22;57787;48.216;12.396;2023-07-24T08:30:30;27.40;53.20
70366;DHT22;57787;48.216;12.396;2023-07-24T08:32:58;26.80;53.50
70366;DHT22;57787;48.216;12.396;2023-07-24T08:35:26;26.50;53.90
70366;DHT22;57787;48.216;12.396;2023-07-24T08:37:53;26.20;54.70
70366;DHT22;57787;48.216;12.396;2023-07-24T08:40:20;26.20;54.80
70366;DHT22;57787;48.216;12.396;2023-07-24T08:42:49;26.10;54.90
70366;DHT22;57787;48.216;12.396;2023-07-24T08:45:17;26.00;55.30
70366;DHT22;57787;48.216;12.396;2023-07-24T08:47:45;26.00;55.40
70366;DHT22;57787;48.216;12.396;2023-07-24T08:50:13;26.20;55.20
70366;DHT22;57787;48.216;12.396;2023-07-24T08:52:43;26.40;53.60
70366;DHT22;57787;48.216;12.396;2023-07-24T08:55:11;26.80;52.40
70366;DHT22;57787;48.216;12.396;2023-07-24T08:57:39;26.90;51.70
70366;DHT22;57787;48.216;12.396;2023-07-24T09:00:07;27.10;49.90
70366;DHT22;57787;48.216;12.396;2023-07-24T09:02:35;27.20;49.80
70366;DHT22;57787;48.216;12.396;2023-07-24T09:05:03;27.50;49.90
70366;DHT22;57787;48.216;12.396;2023-07-24T09:07:31;27.40;49.40
70366;DHT22;57787;48.216;12.396;2023-07-24T09:09:58;27.30;49.90
70366;DHT22;57787;48.216;12.396;2023-07-24T09:12:25;27.20;49.40
70366;DHT22;57787;48.216;12.396;2023-07-24T09:15:02;26.70;50.60
70366;DHT22;57787;48.216;12.396;2023-07-24T09:17:29;26.30;50.70
70366;DHT22;57787;48.216;12.396;2023-07-24T09:19:57;25.90;51.90
70366;DHT22;57787;48.216;12.396;2023-07-24T09:22:24;25.70;53.40
70366;DHT22;57787;48.216;12.396;2023-07-24T09:24:55;25.40;53.40
70366;DHT22;57787;48.216;12.396;2023-07-24T09:27:27;25.10;54.90
70366;DHT22;57787;48.216;12.396;2023-07-24T09:29:56;24.90;56.00
70366;DHT22;57787;48.216;12.396;2023-07-24T09:32:26;24.80;55.90
70366;DHT22;57787;48.216;12.396;2023-07-24T09:34:55;24.70;56.00
70366;DHT22;57787;48.216;12.396;2023-07-24T09:37:33;24.90;55.50
70366;DHT22;57787;48.216;12.396;2023-07-24T09:40:03;24.80;56.90
70366;DHT22;57787;48.216;12.396;2023-07-24T09:42:35;25.00;56.20
70366;DHT22;57787;48.216;12.396;2023-07-24T09:45:18;25.00;56.40
70366;DHT22;57787;48.216;12.396;2023-07-24T09:47:49;25.10;55.50
70366;DHT22;57787;48.216;12.396;2023-07-24T09:50:24;25.00;56.70
70366;DHT22;57787;48.216;12.396;2023-07-24T09:52:51;24.90;56.00
70366;DHT22;57787;48.216;12.396;2023-07-24T09:55:29;24.80;56.60
70366;DHT22;57787;48.216;12.396;2023-07-24T09:57:57;24.70;55.20
70366;DHT22;57787;48.216;12.396;2023-07-24T10:00:25;24.60;57.20
70366;DHT22;57787;48.216;12.396;2023-07-24T10:02:52;24.50;56.80
70366;DHT22;57787;48.216;12.396;2023-07-24T10:05:20;24.50;58.50
70366;DHT22;57787;48.216;12.396;2023-07-24T10:07:46;24.60;59.70
70366;DHT22;57787;48.216;12.396;2023-07-24T10:10:14;24.60;58.10
70366;DHT22;57787;48.216;12.396;2023-07-24T10:12:43;24.80;58.30
70366;DHT22;57787;48.216;12.396;2023-07-24T10:15:11;24.80;57.90
70366;DHT22;57787;48.216;12.396;2023-07-24T10:17:42;25.00;56.60
70366;DHT22;57787;48.216;12.396;2023-07-24T10:20:11;25.10;57.50
70366;DHT22;57787;48.216;12.396;2023-07-24T10:22:44;25.40;55.20
70366;DHT22;57787;48.216;12.396;2023-07-24T10:25:12;25.90;54.40
70366;DHT22;57787;48.216;12.396;2023-07-24T10:27:46;26.80;54.50
70366;DHT22;57787;48.216;12.396;2023-07-24T10:30:14;27.70;52.10
70366;DHT22;57787;48.216;12.396;2023-07-24T10:33:20;28.80;49.00
70366;DHT22;57787;48.216;12.396;2023-07-24T10:35:53;29.50;44.90
70366;DHT22;57787;48.216;12.396;2023-07-24T10:38:33;30.00;44.90
70366;DHT22;57787;48.216;12.396;2023-07-24T10:41:06;30.30;43.90
70366;DHT22;57787;48.216;12.396;2023-07-24T10:43:47;30.50;44.60
70366;DHT22;57787;48.216;12.396;2023-07-24T10:46:17;30.50;43.10
70366;DHT22;57787;48.216;12.396;2023-07-24T10:48:50;30.40;42.70
70366;DHT22;57787;48.216;12.396;2023-07-24T10:51:20;30.30;42.50
70366;DHT22;57787;48.216;12.396;2023-07-24T10:53:49;30.20;44.40
70366;DHT22;57787;48.216;12.396;2023-07-24T10:56:19;30.40;42.80
70366;DHT22;57787;48.216;12.396;2023-07-24T10:58:46;30.50;43.60
70366;DHT22;57787;48.216;12.396;2023-07-24T11:01:13;30.70;43.00
70366;DHT22;57787;48.216;12.396;2023-07-24T11:06:19;30.80;41.50
70366;DHT22;57787;48.216;12.396;2023-07-24T11:08:53;30.80;41.80
70366;DHT22;57787;48.216;12.396;2023-07-24T11:11:20;31.10;42.20
70366;DHT22;57787;48.216;12.396;2023-07-24T11:13:50;31.30;41.70
70366;DHT22;57787;48.216;12.396;2023-07-24T11:16:17;31.40;41.90
70366;DHT22;57787;48.216;12.396;2023-07-24T11:18:49;31.30;40.80
70366;DHT22;57787;48.216;12.396;2023-07-24T11:21:22;31.20;40.20
70366;DHT22;57787;48.216;12.396;2023-07-24T11:23:54;31.00;40.00
70366;DHT22;57787;48.216;12.396;2023-07-24T11:26:23;30.70;41.90
70366;DHT22;57787;48.216;12.396;2023-07-24T11:28:53;30.40;42.40
70366;DHT22;57787;48.216;12.396;2023-07-24T11:31:40;29.90;43.10
70366;DHT22;57787;48.216;12.396;2023-07-24T11:34:08;29.70;42.70
70366;DHT22;57787;48.216;12.396;2023-07-24T11:36:37;29.80;44.00
70366;DHT22;57787;48.216;12.396;2023-07-24T11:39:08;29.90;42.80
70366;DHT22;57787;48.216;12.396;2023-07-24T11:41:36;30.40;43.50
70366;DHT22;57787;48.216;12.396;2023-07-24T11:44:27;31.00;41.70
70366;DHT22;57787;48.216;12.396;2023-07-24T11:47:05;31.30;39.80
70366;DHT22;57787;48.216;12.396;2023-07-24T11:49:35;32.00;39.90
70366;DHT22;57787;48.216;12.396;2023-07-24T11:52:05;32.60;37.60
70366;DHT22;57787;48.216;12.396;2023-07-24T11:57:16;32.80;37.40
70366;DHT22;57787;48.216;12.396;2023-07-24T11:59:43;33.00;37.90
70366;DHT22;57787;48.216;12.396;2023-07-24T12:04:58;32.80;36.50
70366;DHT22;57787;48.216;12.396;2023-07-24T12:07:33;32.50;36.60
70366;DHT22;57787;48.216;12.396;2023-07-24T12:10:04;32.00;36.40
70366;DHT22;57787;48.216;12.396;2023-07-24T12:12:43;31.60;38.00
70366;DHT22;57787;48.216;12.396;2023-07-24T12:15:13;31.60;37.10
70366;DHT22;57787;48.216;12.396;2023-07-24T12:17:41;31.60;37.60
70366;DHT22;57787;48.216;12.396;2023-07-24T12:20:09;31.80;39.40
70366;DHT22;57787;48.216;12.396;2023-07-24T12:22:37;31.90;38.40
70366;DHT22;57787;48.216;12.396;2023-07-24T12:25:06;31.80;38.00
70366;DHT22;57787;48.216;12.396;2023-07-24T12:27:33;31.80;38.60
70366;DHT22;57787;48.216;12.396;2023-07-24T12:30:00;32.00;40.50
70366;DHT22;57787;48.216;12.396;2023-07-24T12:32:28;32.50;36.80
70366;DHT22;57787;48.216;12.396;2023-07-24T12:37:38;31.80;36.30
70366;DHT22;57787;48.216;12.396;2023-07-24T12:40:09;31.30;36.80
70366;DHT22;57787;48.216;12.396;2023-07-24T12:42:36;31.30;37.90
70366;DHT22;57787;48.216;12.396;2023-07-24T12:45:05;31.30;38.00
70366;DHT22;57787;48.216;12.396;2023-07-24T12:47:33;31.50;40.30
70366;DHT22;57787;48.216;12.396;2023-07-24T12:50:00;32.00;40.00
70366;DHT22;57787;48.216;12.396;2023-07-24T12:52:29;32.00;37.60
70366;DHT22;57787;48.216;12.396;2023-07-24T12:54:58;31.60;38.60
70366;DHT22;57787;48.216;12.396;2023-07-24T12:57:28;31.30;39.50
70366;DHT22;57787;48.216;12.396;2023-07-24T12:59:56;31.00;40.70
70366;DHT22;57787;48.216;12.396;2023-07-24T13:02:23;30.80;39.90
70366;DHT22;57787;48.216;12.396;2023-07-24T13:04:50;30.30;40.30
70366;DHT22;57787;48.216;12.396;2023-07-24T13:07:17;29.70;41.20
70366;DHT22;57787;48.216;12.396;2023-07-24T13:09:44;29.20;42.70
70366;DHT22;57787;48.216;12.396;2023-07-24T13:12:11;28.70;43.00
70366;DHT22;57787;48.216;12.396;2023-07-24T13:14:41;28.30;47.20
70366;DHT22;57787;48.216;12.396;2023-07-24T13:17:10;27.80;46.50
70366;DHT22;57787;48.216;12.396;2023-07-24T13:19:37;27.20;49.50
70366;DHT22;57787;48.216;12.396;2023-07-24T13:22:04;26.50;51.80
70366;DHT22;57787;48.216;12.396;2023-07-24T13:24:33;25.80;54.40
70366;DHT22;57787;48.216;12.396;2023-07-24T13:27:00;25.20;55.70
70366;DHT22;57787;48.216;12.396;2023-07-24T13:29:30;24.80;57.40
70366;DHT22;57787;48.216;12.396;2023-07-24T13:31:59;24.40;59.70
70366;DHT22;57787;48.216;12.396;2023-07-24T13:34:26;24.10;60.20
70366;DHT22;57787;48.216;12.396;2023-07-24T13:36:53;24.00;61.50
70366;DHT22;57787;48.216;12.396;2023-07-24T13:39:21;23.90;61.90
70366;DHT22;57787;48.216;12.396;2023-07-24T13:41:48;23.80;61.90
70366;DHT22;57787;48.216;12.396;2023-07-24T13:44:15;23.90;63.30
70366;DHT22;57787;48.216;12.396;2023-07-24T13:46:47;23.80;62.90
70366;DHT22;57787;48.216;12.396;2023-07-24T13:49:14;23.80;64.20
70366;DHT22;57787;48.216;12.396;2023-07-24T13:51:40;23.70;64.30
70366;DHT22;57787;48.216;12.396;2023-07-24T13:54:07;23.50;65.20
70366;DHT22;57787;48.216;12.396;2023-07-24T13:56:34;23.30;65.60
70366;DHT22;57787;48.216;12.396;2023-07-24T13:59:02;23.20;66.40
70366;DHT22;57787;48.216;12.396;2023-07-24T14:01:29;23.10;67.00
70366;DHT22;57787;48.216;12.396;2023-07-24T14:03:57;23.00;67.40
70366;DHT22;57787;48.216;12.396;2023-07-24T14:06:24;22.90;68.00
70366;DHT22;57787;48.216;12.396;2023-07-24T14:08:51;22.80;68.60
70366;DHT22;57787;48.216;12.396;2023-07-24T14:11:18;22.80;68.80
70366;DHT22;57787;48.216;12.396;2023-07-24T14:13:45;22.70;69.20
70366;DHT22;57787;48.216;12.396;2023-07-24T14:16:13;22.60;69.50
70366;DHT22;57787;48.216;12.396;2023-07-24T14:18:40;22.60;69.80
70366;DHT22;57787;48.216;12.396;2023-07-24T14:21:07;22.50;69.50
70366;DHT22;57787;48.216;12.396;2023-07-24T14:23:34;22.60;69.60
70366;DHT22;57787;48.216;12.396;2023-07-24T14:26:01;22.80;69.50
70366;DHT22;57787;48.216;12.396;2023-07-24T14:28:29;22.80;69.60
70366;DHT22;57787;48.216;12.396;2023-07-24T14:30:56;22.90;68.70
70366;DHT22;57787;48.216;12.396;2023-07-24T14:33:22;23.00;68.50
70366;DHT22;57787;48.216;12.396;2023-07-24T14:35:49;23.30;68.40
70366;DHT22;57787;48.216;12.396;2023-07-24T14:38:16;23.50;66.90
70366;DHT22;57787;48.216;12.396;2023-07-24T14:40:43;23.80;65.90
70366;DHT22;57787;48.216;12.396;2023-07-24T14:43:10;24.30;65.40
70366;DHT22;57787;48.216;12.396;2023-07-24T14:45:38;24.70;64.00
70366;DHT22;57787;48.216;12.396;2023-07-24T14:48:06;25.20;63.00
70366;DHT22;57787;48.216;12.396;2023-07-24T14:50:35;25.60;61.20
70366;DHT22;57787;48.216;12.396;2023-07-24T14:53:02;26.00;60.50
70366;DHT22;57787;48.216;12.396;2023-07-24T14:55:29;26.20;59.00
70366;DHT22;57787;48.216;12.396;2023-07-24T14:57:56;26.40;58.00
70366;DHT22;57787;48.216;12.396;2023-07-24T15:00:23;26.70;57.10
70366;DHT22;57787;48.216;12.396;2023-07-24T15:02:51;26.90;58.20
70366;DHT22;57787;48.216;12.396;2023-07-24T15:05:18;27.00;55.80
70366;DHT22;57787;48.216;12.396;2023-07-24T15:07:45;27.00;55.40
70366;DHT22;57787;48.216;12.396;2023-07-24T15:10:13;27.10;55.60
70366;DHT22;57787;48.216;12.396;2023-07-24T15:12:40;27.10;55.00
70366;DHT22;57787;48.216;12.396;2023-07-24T15:15:08;27.10;55.70
70366;DHT22;57787;48.216;12.396;2023-07-24T15:17:35;27.20;54.60
70366;DHT22;57787;48.216;12.396;2023-07-24T15:20:02;27.50;54.30
70366;DHT22;57787;48.216;12.396;2023-07-24T15:22:31;27.80;53.40
70366;DHT22;57787;48.216;12.396;2023-07-24T15:24:59;28.10;53.70
70366;DHT22;57787;48.216;12.396;2023-07-24T15:27:26;28.10;52.50
70366;DHT22;57787;48.216;12.396;2023-07-24T15:29:53;28.10;52.50
70366;DHT22;57787;48.216;12.396;2023-07-24T15:32:20;28.00;53.00
70366;DHT22;57787;48.216;12.396;2023-07-24T15:34:46;27.90;53.30
70366;DHT22;57787;48.216;12.396;2023-07-24T15:37:13;27.80;53.80
70366;DHT22;57787;48.216;12.396;2023-07-24T15:39:40;27.60;54.00
70366;DHT22;57787;48.216;12.396;2023-07-24T15:42:07;27.30;54.30
70366;DHT22;57787;48.216;12.396;2023-07-24T15:44:34;27.20;54.60
70366;DHT22;57787;48.216;12.396;2023-07-24T15:47:05;27.10;54.80
70366;DHT22;57787;48.216;12.396;2023-07-24T15:49:32;27.10;54.50